• Join FlightAware (Why Join?)
  • Login
  • US Flag 
07:33AM EDT


 

Airport Tracker/Info


-or-


 

Live Flight TrackerFlight Track Log ✈ CPT241 ✈ 05-May-2013 ✈ PHNL - PHMU / MUE

Flight Track Log - Related Links

Times and Time Zones

All times are in EDT time to prevent confusion due to time zone crossing. See the CPT241 flight status page for this flight to view local times or setup timezone preferences in your user account.

Time Position Orientation Groundspeed Altitude Reporting Facility
EDT Latitude Longitude Course Direction KTS MPH feet Rate Location/Type
10:58AM 21.3167 -157.8833 155° Southeast 140 161 900  Level Honolulu Center
10:59AM 21.2833 -157.8667 155° Southeast 150 173 2,500 1,320 Climbing Honolulu Center
11:00AM 21.2333 -157.8333 148° Southeast 160 184 3,600 1,140 Climbing Honolulu Center
11:01AM 21.2000 -157.8167 155° Southeast 170 196 4,900 1,200 Climbing Honolulu Center
11:02AM 21.1667 -157.7833 137° Southeast 170 196 6,000 1,020 Climbing Honolulu Center
11:03AM 21.1333 -157.7500 137° Southeast 180 207 7,000 1,020 Climbing Honolulu Center
11:04AM 21.1000 -157.7000 126° Southeast 170 196 8,100 960 Climbing Honolulu Center
11:05AM 21.0833 -157.6667 118° Southeast 180 207 9,000 780 Climbing Honolulu Center
11:06AM 21.0500 -157.6167 126° Southeast 180 207 9,700 720 Climbing Honolulu Center
11:07AM 21.0000 -157.5833 148° Southeast 180 207 10,500 720 Climbing Honolulu Center
11:08AM 20.9833 -157.5333 110° East 190 219 11,200 660 Climbing Honolulu Center
11:09AM 20.9500 -157.4833 126° Southeast 200 230 11,900 600 Climbing Honolulu Center
11:10AM 20.9333 -157.4333 110° East 210 242 12,500 540 Climbing Honolulu Center
11:11AM 20.9000 -157.3667 118° Southeast 210 242 13,000 240 Climbing Honolulu Center
11:12AM 20.8833 -157.3167 110° East 230 265 13,000  Level Honolulu Center
11:13AM 20.8500 -157.2500 118° Southeast 250 288 13,000  Level Honolulu Center
11:14AM 20.8333 -157.1833 105° East 260 299 13,000  Level Honolulu Center
11:15AM 20.8000 -157.1167 118° Southeast 250 288 13,000  Level Honolulu Center
11:16AM 20.7667 -157.0500 118° Southeast 260 299 13,000  Level Honolulu Center
11:17AM 20.7333 -156.9833 118° Southeast 250 288 13,000  Level Honolulu Center
11:18AM 20.7000 -156.9167 118° Southeast 250 288 13,000  Level Honolulu Center
11:19AM 20.6667 -156.8500 118° Southeast 250 288 13,000  Level Honolulu Center
11:20AM 20.6333 -156.7833 118° Southeast 250 288 13,000  Level Honolulu Center
11:21AM 20.6000 -156.7167 118° Southeast 250 288 13,000  Level Honolulu Center
11:22AM 20.5667 -156.6500 118° Southeast 240 276 13,000  Level Honolulu Center
11:23AM 20.5167 -156.6000 137° Southeast 240 276 13,000  Level Honolulu Center
11:24AM 20.4667 -156.5500 137° Southeast 240 276 13,000  Level Honolulu Center
11:25AM 20.4167 -156.4833 129° Southeast 240 276 13,000  Level Honolulu Center
11:26AM 20.3667 -156.4333 137° Southeast 240 276 13,000  Level Honolulu Center
11:27AM 20.3333 -156.4000 137° Southeast 240 276 13,000 -420 Level Honolulu Center
11:28AM 20.2667 -156.3333 137° Southeast 250 288 12,200 -780 Descending Honolulu Center
11:29AM 20.2333 -156.2833 125° Southeast 240 276 11,500 -720 Descending Honolulu Center
11:30AM 20.1833 -156.2500 148° Southeast 220 253 10,800 -780 Descending Honolulu Center
11:31AM 20.1500 -156.2000 125° Southeast 240 276 10,000 -960 Descending Honolulu Center
11:32AM 20.1000 -156.1500 137° Southeast 230 265 8,900 -1,140 Descending Honolulu Center
11:33AM 20.0500 -156.1000 137° Southeast 230 265 7,800 -1,020 Descending Honolulu Center
11:34AM 20.0000 -156.0667 148° Southeast 210 242 6,900 -720 Descending Honolulu Center
11:35AM 19.9667 -156.0167 125° Southeast 200 230 6,400 -600 Descending Honolulu Center
11:36AM 19.9167 -155.9833 148° Southeast 210 242 5,700 -660 Descending Honolulu Center
11:37AM 19.8833 -155.9167 118° Southeast 200 230 5,100 -420 Descending Honolulu Center
11:38AM 19.9000 -155.8667 70° East 190 219 4,900 -300 Descending Honolulu Center
11:39AM 19.9167 -155.8167 70° East 190 219 4,600 -300 Descending Honolulu Center
11:40AM 19.9333 -155.7667 70° East 190 219 4,300 -300 Descending Honolulu Center
11:43AM 19.9974 -155.6693 43° Northeast  Level FlightAware Approximate